createdAt,value
2017-11-23T00:00:41.138Z,0.00
2017-11-23T00:01:41.156Z,0.00
2017-11-23T00:02:41.158Z,0.00
2017-11-23T00:03:41.183Z,0.00
2017-11-23T00:04:41.195Z,0.00
2017-11-23T00:05:41.200Z,0.00
2017-11-23T00:06:41.219Z,0.00
2017-11-23T00:07:41.226Z,0.00
2017-11-23T00:08:41.247Z,0.00
2017-11-23T00:09:41.246Z,0.00
2017-11-23T00:10:41.267Z,0.00
2017-11-23T00:11:41.287Z,0.00
2017-11-23T00:12:41.308Z,0.00
2017-11-23T00:13:41.309Z,0.00
2017-11-23T00:14:41.326Z,0.00
2017-11-23T00:15:41.334Z,0.00
2017-11-23T00:16:41.349Z,0.00
2017-11-23T00:17:41.364Z,0.00
2017-11-23T00:18:41.373Z,0.00
2017-11-23T00:19:41.393Z,0.00
2017-11-23T00:20:41.393Z,0.00
2017-11-23T00:21:41.420Z,0.00
2017-11-23T00:22:41.432Z,0.00
2017-11-23T00:23:41.432Z,0.00
2017-11-23T00:24:41.457Z,0.00
2017-11-23T00:25:41.465Z,0.00
2017-11-23T00:26:41.472Z,0.00
2017-11-23T00:27:41.495Z,0.00
2017-11-23T00:28:41.502Z,0.00
2017-11-23T00:29:41.523Z,0.00
2017-11-23T00:30:41.536Z,0.00
2017-11-23T00:31:41.542Z,0.00
2017-11-23T00:32:41.573Z,0.00
2017-11-23T00:33:41.577Z,0.00
2017-11-23T00:34:41.579Z,0.00
2017-11-23T00:35:41.603Z,0.00
2017-11-23T00:36:41.615Z,0.00
2017-11-23T00:37:41.630Z,0.00
2017-11-23T00:38:41.648Z,0.00
2017-11-23T00:39:41.649Z,0.00
2017-11-23T00:40:41.662Z,0.00
2017-11-23T00:41:41.685Z,0.00
2017-11-23T00:42:41.996Z,0.00
2017-11-23T00:43:41.701Z,0.00
2017-11-23T00:44:41.720Z,0.00
2017-11-23T00:45:41.738Z,0.00
2017-11-23T00:46:41.741Z,0.00
2017-11-23T00:47:41.765Z,0.00
2017-11-23T00:48:41.784Z,0.00
2017-11-23T00:49:41.820Z,0.00
2017-11-23T00:50:41.797Z,0.00
2017-11-23T00:51:41.812Z,0.00
2017-11-23T00:52:41.827Z,0.00
2017-11-23T00:53:41.847Z,0.00
2017-11-23T00:54:41.855Z,0.00
2017-11-23T00:55:41.870Z,0.00
2017-11-23T00:56:41.880Z,0.00
2017-11-23T00:57:41.892Z,0.00
2017-11-23T00:58:41.910Z,0.00
2017-11-23T00:59:41.920Z,0.00
2017-11-23T01:00:41.921Z,0.00
2017-11-23T01:01:41.947Z,0.00
2017-11-23T01:02:41.961Z,0.00
2017-11-23T01:03:41.961Z,0.00
2017-11-23T01:04:41.994Z,0.00
2017-11-23T01:05:41.991Z,0.00
2017-11-23T01:06:42.007Z,0.00
2017-11-23T01:07:42.035Z,0.00
2017-11-23T01:08:42.039Z,0.00
2017-11-23T01:09:42.049Z,0.00
2017-11-23T01:10:42.079Z,0.00
2017-11-23T01:11:42.072Z,0.00
2017-11-23T01:12:42.082Z,0.00
2017-11-23T01:13:42.100Z,0.00
2017-11-23T01:14:42.109Z,0.00
2017-11-23T01:15:42.131Z,0.00
2017-11-23T01:16:42.141Z,0.00
2017-11-23T01:17:42.408Z,0.00
2017-11-23T01:18:42.163Z,0.00
2017-11-23T01:19:42.181Z,0.00
2017-11-23T01:20:42.200Z,0.00
2017-11-23T01:21:42.202Z,0.00
2017-11-23T01:22:42.219Z,0.00
2017-11-23T01:23:42.238Z,0.00
2017-11-23T01:24:42.250Z,0.00
2017-11-23T01:25:42.261Z,0.00
2017-11-23T01:26:42.270Z,0.00
2017-11-23T01:27:42.296Z,0.00
2017-11-23T01:28:42.309Z,0.00
2017-11-23T01:29:42.310Z,0.00
2017-11-23T01:30:42.328Z,0.00
2017-11-23T01:31:42.350Z,0.00
2017-11-23T01:32:42.344Z,0.00
2017-11-23T01:33:42.380Z,0.00
2017-11-23T01:34:42.383Z,0.00
2017-11-23T01:35:42.391Z,0.00
2017-11-23T01:36:42.410Z,0.00
2017-11-23T01:37:42.425Z,0.00
2017-11-23T01:38:42.437Z,0.00
2017-11-23T01:39:42.443Z,0.00
2017-11-23T01:40:42.465Z,0.00
2017-11-23T01:41:42.464Z,0.00
2017-11-23T01:42:42.491Z,0.00
2017-11-23T01:43:42.499Z,0.00
2017-11-23T01:44:42.513Z,0.00
2017-11-23T01:45:42.527Z,0.00
2017-11-23T01:46:42.536Z,0.00
2017-11-23T01:47:42.560Z,0.00
2017-11-23T01:48:42.574Z,0.00
2017-11-23T01:49:42.577Z,0.00
2017-11-23T01:50:42.593Z,0.00
2017-11-23T01:51:42.612Z,0.00
2017-11-23T01:52:42.912Z,0.00
2017-11-23T01:53:42.638Z,0.00
2017-11-23T01:54:42.646Z,0.00
2017-11-23T01:55:42.651Z,0.00
2017-11-23T01:56:42.692Z,0.00
2017-11-23T01:57:42.687Z,0.00
2017-11-23T01:58:42.694Z,0.00
2017-11-23T01:59:42.713Z,0.00
2017-11-23T02:00:42.726Z,0.00
2017-11-23T02:01:42.737Z,0.00
2017-11-23T02:02:42.761Z,0.00
2017-11-23T02:03:42.759Z,0.00
2017-11-23T02:04:42.782Z,0.00
2017-11-23T02:05:42.788Z,0.00
2017-11-23T02:06:42.796Z,0.00
2017-11-23T02:07:42.830Z,0.00
2017-11-23T02:08:42.835Z,0.00
2017-11-23T02:09:42.846Z,0.00
2017-11-23T02:10:42.869Z,0.00
2017-11-23T02:11:42.872Z,0.00
2017-11-23T02:12:42.881Z,0.00
2017-11-23T02:13:42.905Z,0.00
2017-11-23T02:14:42.910Z,0.00
2017-11-23T02:15:42.921Z,0.00
2017-11-23T02:16:42.943Z,0.00
2017-11-23T02:17:42.955Z,0.00
2017-11-23T02:18:42.970Z,0.00
2017-11-23T02:19:42.981Z,0.00
2017-11-23T02:20:42.988Z,0.00
2017-11-23T02:21:43.006Z,0.00
2017-11-23T02:22:43.269Z,0.00
2017-11-23T02:23:43.034Z,0.00
2017-11-23T02:24:43.045Z,0.00
2017-11-23T02:25:43.065Z,0.00
2017-11-23T02:26:43.071Z,0.00
2017-11-23T02:27:43.102Z,0.00
2017-11-23T02:28:43.095Z,0.00
2017-11-23T02:29:43.108Z,0.00
2017-11-23T02:30:43.129Z,0.00
2017-11-23T02:31:43.135Z,0.00
2017-11-23T02:32:43.159Z,0.00
2017-11-23T02:33:43.167Z,0.00
2017-11-23T02:34:43.178Z,0.00
2017-11-23T02:35:43.190Z,0.00
2017-11-23T02:36:43.205Z,0.00
2017-11-23T02:37:43.215Z,0.00
2017-11-23T02:38:43.239Z,0.00
2017-11-23T02:39:43.250Z,0.00
2017-11-23T02:40:43.254Z,0.00
2017-11-23T02:41:43.286Z,0.00
2017-11-23T02:42:43.285Z,0.00
2017-11-23T02:43:43.297Z,0.00
2017-11-23T02:44:43.313Z,0.00
2017-11-23T02:45:43.318Z,0.00
2017-11-23T02:46:43.327Z,0.00
2017-11-23T02:47:43.352Z,0.00
2017-11-23T02:48:43.363Z,0.00
2017-11-23T02:49:43.372Z,0.00
2017-11-23T02:50:43.398Z,0.00
2017-11-23T02:51:43.398Z,0.00
2017-11-23T02:52:43.722Z,0.00
2017-11-23T02:53:43.432Z,0.00
2017-11-23T02:54:43.442Z,0.00
2017-11-23T02:55:43.467Z,0.00
2017-11-23T02:56:43.466Z,0.00
2017-11-23T02:57:43.480Z,0.00
2017-11-23T02:58:43.501Z,0.00
2017-11-23T02:59:43.512Z,0.00
2017-11-23T03:00:43.520Z,0.00
2017-11-23T03:01:43.545Z,0.00
2017-11-23T03:02:43.547Z,0.00
2017-11-23T03:03:43.583Z,0.00
2017-11-23T03:04:43.581Z,0.00
2017-11-23T03:05:43.588Z,0.00
2017-11-23T03:06:43.597Z,0.00
2017-11-23T03:07:43.621Z,0.00
2017-11-23T03:08:43.629Z,0.00
2017-11-23T03:09:43.635Z,0.00
2017-11-23T03:10:43.660Z,0.00
2017-11-23T03:11:43.675Z,0.00
2017-11-23T03:12:43.685Z,0.00
2017-11-23T03:13:43.697Z,0.00
2017-11-23T03:14:43.714Z,0.00
2017-11-23T03:15:43.729Z,0.00
2017-11-23T03:16:43.736Z,0.00
2017-11-23T03:17:43.748Z,0.00
2017-11-23T03:18:43.765Z,0.00
2017-11-23T03:19:43.775Z,0.00
2017-11-23T03:20:43.794Z,0.00
2017-11-23T03:21:43.811Z,0.00
2017-11-23T03:22:44.116Z,0.00
2017-11-23T03:23:43.836Z,0.00
2017-11-23T03:24:43.852Z,0.00
2017-11-23T03:25:43.856Z,0.00
2017-11-23T03:26:43.876Z,0.00
2017-11-23T03:27:44.133Z,0.00
2017-11-23T03:28:43.895Z,0.00
2017-11-23T03:29:43.921Z,0.00
2017-11-23T03:30:43.928Z,0.00
2017-11-23T03:31:43.949Z,0.00
2017-11-23T03:32:43.961Z,0.00
2017-11-23T03:33:43.964Z,0.00
2017-11-23T03:34:43.987Z,0.00
2017-11-23T03:35:43.997Z,0.00
2017-11-23T03:36:44.004Z,0.00
2017-11-23T03:37:44.022Z,0.00
2017-11-23T03:38:44.036Z,0.00
2017-11-23T03:39:44.050Z,0.00
2017-11-23T03:40:44.069Z,0.00
2017-11-23T03:41:44.071Z,0.00
2017-11-23T03:42:44.096Z,0.00
2017-11-23T03:43:44.111Z,0.00
2017-11-23T03:44:44.115Z,0.00
2017-11-23T03:45:44.127Z,0.00
2017-11-23T03:46:44.141Z,0.00
2017-11-23T03:47:44.167Z,0.00
2017-11-23T03:48:44.164Z,0.00
2017-11-23T03:49:44.179Z,0.00
2017-11-23T03:50:44.207Z,0.00
2017-11-23T03:51:44.203Z,0.00
2017-11-23T03:52:44.221Z,0.00
2017-11-23T03:53:44.238Z,0.00
2017-11-23T03:54:44.249Z,0.00
2017-11-23T03:55:44.259Z,0.00
2017-11-23T03:56:44.273Z,0.00
2017-11-23T03:57:44.286Z,0.00
2017-11-23T03:58:44.308Z,0.00
2017-11-23T03:59:44.313Z,0.00
2017-11-23T04:00:44.325Z,0.00
2017-11-23T04:01:44.342Z,0.00
2017-11-23T04:02:44.653Z,0.00
2017-11-23T04:03:44.365Z,0.00
2017-11-23T04:04:44.393Z,0.00
2017-11-23T04:05:44.403Z,0.00
2017-11-23T04:06:44.419Z,0.00
2017-11-23T04:07:44.431Z,0.00
2017-11-23T04:08:44.435Z,0.00
2017-11-23T04:09:44.460Z,0.00
2017-11-23T04:10:44.481Z,0.00
2017-11-23T04:11:44.481Z,0.00
2017-11-23T04:12:44.493Z,0.00
2017-11-23T04:13:44.513Z,0.00
2017-11-23T04:14:44.532Z,0.00
2017-11-23T04:15:44.533Z,0.00
2017-11-23T04:16:44.545Z,0.00
2017-11-23T04:17:44.562Z,0.00
2017-11-23T04:18:44.582Z,0.00
2017-11-23T04:19:44.588Z,0.00
2017-11-23T04:20:44.600Z,0.00
2017-11-23T04:21:44.620Z,0.00
2017-11-23T04:22:44.924Z,0.00
2017-11-23T04:23:44.646Z,0.00
2017-11-23T04:24:44.660Z,0.00
2017-11-23T04:25:44.671Z,0.00
2017-11-23T04:26:44.702Z,0.00
2017-11-23T04:27:44.943Z,0.00
2017-11-23T04:28:44.709Z,0.00
2017-11-23T04:29:44.720Z,0.00
2017-11-23T04:30:44.735Z,0.00
2017-11-23T04:31:44.748Z,0.00
2017-11-23T04:32:44.790Z,0.00
2017-11-23T04:33:44.775Z,0.00
2017-11-23T04:34:44.786Z,0.00
2017-11-23T04:35:44.809Z,0.00
2017-11-23T04:36:44.826Z,0.00
2017-11-23T04:37:44.839Z,0.00
2017-11-23T04:38:44.841Z,0.00
2017-11-23T04:39:44.862Z,0.00
2017-11-23T04:40:44.868Z,0.00
2017-11-23T04:41:44.894Z,0.00
2017-11-23T04:42:45.145Z,0.00
2017-11-23T04:43:44.908Z,0.00
2017-11-23T04:44:44.935Z,0.00
2017-11-23T04:45:44.944Z,0.00
2017-11-23T04:46:44.955Z,0.00
2017-11-23T04:47:45.271Z,0.00
2017-11-23T04:48:44.982Z,0.00
2017-11-23T04:49:44.982Z,0.00
2017-11-23T04:50:45.004Z,0.00
2017-11-23T04:51:45.025Z,0.00
2017-11-23T04:52:45.043Z,0.00
2017-11-23T04:53:45.049Z,0.00
2017-11-23T04:54:45.057Z,0.00
2017-11-23T04:55:45.079Z,0.00
2017-11-23T04:56:45.086Z,0.00
2017-11-23T04:57:45.092Z,0.00
2017-11-23T04:58:45.113Z,0.00
2017-11-23T04:59:45.135Z,0.00
2017-11-23T05:00:45.144Z,0.00
2017-11-23T05:01:45.173Z,0.00
2017-11-23T05:02:45.166Z,0.00
2017-11-23T05:03:45.184Z,0.00
2017-11-23T05:04:45.197Z,0.00
2017-11-23T05:05:45.205Z,0.00
2017-11-23T05:06:45.223Z,0.00
2017-11-23T05:07:45.240Z,0.00
2017-11-23T05:08:45.265Z,0.00
2017-11-23T05:09:45.264Z,0.00
2017-11-23T05:10:45.281Z,0.00
2017-11-23T05:11:45.299Z,0.00
2017-11-23T05:12:45.562Z,0.00
2017-11-23T05:13:45.327Z,0.00
2017-11-23T05:14:45.338Z,0.00
2017-11-23T05:15:45.345Z,0.00
2017-11-23T05:16:45.360Z,0.00
2017-11-23T05:17:45.378Z,0.00
2017-11-23T05:18:45.401Z,0.00
2017-11-23T05:19:45.399Z,0.00
2017-11-23T05:20:45.420Z,0.00
2017-11-23T05:21:45.428Z,0.00
2017-11-23T05:22:45.447Z,0.00
2017-11-23T05:23:45.452Z,0.00
2017-11-23T05:24:45.478Z,0.00
2017-11-23T05:25:45.490Z,0.00
2017-11-23T05:26:45.508Z,0.00
2017-11-23T05:27:45.515Z,0.00
2017-11-23T05:28:45.521Z,0.00
2017-11-23T05:29:45.539Z,0.00
2017-11-23T05:30:45.554Z,0.00
2017-11-23T05:31:45.579Z,0.00
2017-11-23T05:32:45.833Z,0.00
2017-11-23T05:33:45.593Z,0.00
2017-11-23T05:34:45.619Z,0.00
2017-11-23T05:35:45.618Z,0.00
2017-11-23T05:36:45.645Z,0.00
2017-11-23T05:37:45.956Z,0.00
2017-11-23T05:38:45.665Z,0.00
2017-11-23T05:39:45.689Z,0.00
2017-11-23T05:40:45.686Z,0.00
2017-11-23T05:41:45.710Z,0.00
2017-11-23T05:42:45.979Z,0.00
2017-11-23T05:43:45.737Z,0.00
2017-11-23T05:44:45.757Z,0.00
2017-11-23T05:45:45.770Z,0.00
2017-11-23T05:46:45.779Z,0.00
2017-11-23T05:47:45.792Z,0.00
2017-11-23T05:48:45.803Z,0.00
2017-11-23T05:49:45.821Z,0.00
2017-11-23T05:50:45.828Z,0.00
2017-11-23T05:51:45.845Z,0.00
2017-11-23T05:52:45.854Z,0.00
2017-11-23T05:53:45.867Z,0.00
2017-11-23T05:54:45.888Z,0.00
2017-11-23T05:55:45.899Z,0.00
2017-11-23T05:56:45.922Z,0.00
2017-11-23T05:57:46.191Z,0.00
2017-11-23T05:58:45.940Z,0.00
2017-11-23T05:59:45.969Z,0.00
2017-11-23T06:00:45.972Z,0.00
2017-11-23T06:01:45.995Z,0.00
2017-11-23T06:02:46.006Z,0.00
2017-11-23T06:03:46.008Z,4.00
2017-11-23T06:04:46.029Z,4.00
2017-11-23T06:05:46.037Z,4.00
2017-11-23T06:06:46.049Z,0.00
2017-11-23T06:07:46.069Z,0.00
2017-11-23T06:08:46.078Z,4.00
2017-11-23T06:09:46.105Z,4.00
2017-11-23T06:10:46.121Z,4.00
2017-11-23T06:11:46.125Z,4.00
2017-11-23T06:12:46.137Z,4.00
2017-11-23T06:13:46.141Z,4.00
2017-11-23T06:14:46.164Z,8.00
2017-11-23T06:15:46.175Z,8.00
2017-11-23T06:16:46.188Z,12.00
2017-11-23T06:17:46.465Z,8.00
2017-11-23T06:18:46.217Z,16.00
2017-11-23T06:19:46.234Z,16.00
2017-11-23T06:20:46.256Z,20.00
2017-11-23T06:21:46.250Z,20.00
2017-11-23T06:22:46.280Z,24.00
2017-11-23T06:23:46.285Z,28.00
2017-11-23T06:24:46.310Z,32.00
2017-11-23T06:25:46.316Z,36.00
2017-11-23T06:26:46.331Z,40.00
2017-11-23T06:27:46.340Z,48.00
2017-11-23T06:28:46.369Z,52.00
2017-11-23T06:29:46.377Z,60.00
2017-11-23T06:30:46.382Z,72.00
2017-11-23T06:31:46.400Z,80.00
2017-11-23T06:32:46.415Z,92.00
2017-11-23T06:33:46.433Z,104.00
2017-11-23T06:34:46.445Z,116.00
2017-11-23T06:35:46.457Z,124.00
2017-11-23T06:36:46.472Z,140.00
2017-11-23T06:37:46.498Z,152.00
2017-11-23T06:38:46.490Z,168.00
2017-11-23T06:39:46.522Z,184.00
2017-11-23T06:40:46.520Z,204.00
2017-11-23T06:41:46.540Z,232.00
2017-11-23T06:42:46.811Z,260.00
2017-11-23T06:43:46.564Z,288.00
2017-11-23T06:44:46.589Z,308.00
2017-11-23T06:45:46.593Z,328.00
2017-11-23T06:46:46.596Z,356.00
2017-11-23T06:47:46.631Z,388.00
2017-11-23T06:48:46.635Z,420.00
2017-11-23T06:49:46.644Z,456.00
2017-11-23T06:50:46.671Z,496.00
2017-11-23T06:51:46.678Z,540.00
2017-11-23T06:52:46.694Z,588.00
2017-11-23T06:53:46.697Z,636.00
2017-11-23T06:54:46.712Z,688.00
2017-11-23T06:55:46.739Z,740.00
2017-11-23T06:56:46.744Z,792.00
2017-11-23T06:57:47.017Z,848.00
2017-11-23T06:58:46.773Z,908.00
2017-11-23T06:59:46.777Z,964.00
2017-11-23T07:00:46.806Z,1024.00
2017-11-23T07:01:46.806Z,1092.00
2017-11-23T07:02:47.132Z,1164.00
2017-11-23T07:03:46.847Z,1228.00
2017-11-23T07:04:46.855Z,1296.00
2017-11-23T07:05:46.876Z,1364.00
2017-11-23T07:06:46.880Z,1420.00
2017-11-23T07:07:46.898Z,1472.00
2017-11-23T07:08:46.920Z,1524.00
2017-11-23T07:09:46.927Z,1568.00
2017-11-23T07:10:46.936Z,1620.00
2017-11-23T07:11:46.949Z,1664.00
2017-11-23T07:12:46.967Z,1708.00
2017-11-23T07:13:46.986Z,1736.00
2017-11-23T07:14:46.994Z,1760.00
2017-11-23T07:15:47.005Z,1796.00
2017-11-23T07:16:47.026Z,1832.00
2017-11-23T07:17:47.038Z,1876.00
2017-11-23T07:18:47.055Z,1928.00
2017-11-23T07:19:47.079Z,2004.00
2017-11-23T07:20:47.075Z,2092.00
2017-11-23T07:21:47.087Z,2188.00
2017-11-23T07:22:47.116Z,2268.00
2017-11-23T07:23:47.122Z,2352.00
2017-11-23T07:24:47.149Z,2400.00
2017-11-23T07:25:47.146Z,2428.00
2017-11-23T07:26:47.162Z,2452.00
2017-11-23T07:27:47.180Z,2456.00
2017-11-23T07:28:47.190Z,2456.00
2017-11-23T07:29:47.211Z,2452.00
2017-11-23T07:30:47.219Z,2444.00
2017-11-23T07:31:47.250Z,2456.00
2017-11-23T07:32:47.256Z,2532.00
2017-11-23T07:33:47.253Z,2640.00
2017-11-23T07:34:47.276Z,2752.00
2017-11-23T07:35:47.293Z,2844.00
2017-11-23T07:36:47.306Z,2928.00
2017-11-23T07:37:47.319Z,3024.00
2017-11-23T07:38:47.344Z,3088.00
2017-11-23T07:39:47.354Z,3108.00
2017-11-23T07:40:47.369Z,3132.00
2017-11-23T07:41:47.375Z,3136.00
2017-11-23T07:42:47.405Z,3104.00
2017-11-23T07:43:47.413Z,3096.00
2017-11-23T07:44:47.436Z,3112.00
2017-11-23T07:45:47.456Z,3128.00
2017-11-23T07:46:47.460Z,3168.00
2017-11-23T07:47:47.464Z,3228.00
2017-11-23T07:48:47.497Z,3292.00
2017-11-23T07:49:47.502Z,3352.00
2017-11-23T07:50:47.511Z,3384.00
2017-11-23T07:51:47.531Z,3416.00
2017-11-23T07:52:47.538Z,3452.00
2017-11-23T07:53:47.558Z,3472.00
2017-11-23T07:54:47.578Z,3492.00
2017-11-23T07:55:47.586Z,3568.00
2017-11-23T07:56:47.618Z,3616.00
2017-11-23T07:57:47.867Z,3696.00
2017-11-23T07:58:47.642Z,3804.00
2017-11-23T07:59:47.658Z,3888.00
2017-11-23T08:00:47.672Z,3956.00
2017-11-23T08:01:47.676Z,3972.00
2017-11-23T08:02:47.704Z,3900.00
2017-11-23T08:03:47.715Z,3824.00
2017-11-23T08:04:47.734Z,3776.00
2017-11-23T08:05:47.749Z,3772.00
2017-11-23T08:06:47.770Z,3800.00
2017-11-23T08:07:47.788Z,3848.00
2017-11-23T08:08:47.793Z,3892.00
2017-11-23T08:09:47.800Z,3960.00
2017-11-23T08:10:47.826Z,4048.00
2017-11-23T08:11:47.843Z,4148.00
2017-11-23T08:12:47.857Z,4276.00
2017-11-23T08:13:47.877Z,4412.00
2017-11-23T08:14:47.890Z,4544.00
2017-11-23T08:15:47.910Z,4664.00
2017-11-23T08:16:47.920Z,4752.00
2017-11-23T08:17:48.239Z,4816.00
2017-11-23T08:18:47.950Z,4832.00
2017-11-23T08:19:47.975Z,4840.00
2017-11-23T08:20:47.991Z,4808.00
2017-11-23T08:21:48.006Z,4764.00
2017-11-23T08:22:48.026Z,4720.00
2017-11-23T08:23:48.020Z,4688.00
2017-11-23T08:24:48.049Z,4688.00
2017-11-23T08:25:48.071Z,4696.00
2017-11-23T08:26:48.074Z,4732.00
2017-11-23T08:27:48.106Z,4740.00
2017-11-23T08:28:48.113Z,4756.00
2017-11-23T08:29:48.136Z,4792.00
2017-11-23T08:30:48.148Z,4864.00
2017-11-23T08:31:48.157Z,4932.00
2017-11-23T08:32:48.186Z,4964.00
2017-11-23T08:33:48.185Z,4960.00
2017-11-23T08:34:48.213Z,4940.00
2017-11-23T08:35:48.222Z,4912.00
2017-11-23T08:36:48.247Z,4888.00
2017-11-23T08:37:48.519Z,4872.00
2017-11-23T08:38:48.274Z,4856.00
2017-11-23T08:39:48.295Z,4860.00
2017-11-23T08:40:48.320Z,4860.00
2017-11-23T08:41:48.328Z,4860.00
2017-11-23T08:42:48.341Z,4868.00
2017-11-23T08:43:48.362Z,4876.00
2017-11-23T08:44:48.379Z,4884.00
2017-11-23T08:45:48.401Z,4872.00
2017-11-23T08:46:48.407Z,4844.00
2017-11-23T08:47:48.429Z,4820.00
2017-11-23T08:48:48.450Z,4828.00
2017-11-23T08:49:48.459Z,4872.00
2017-11-23T08:50:48.477Z,4956.00
2017-11-23T08:51:48.490Z,5096.00
2017-11-23T08:52:48.505Z,5304.00
2017-11-23T08:53:48.538Z,5516.00
2017-11-23T08:54:48.540Z,5688.00
2017-11-23T08:55:48.564Z,5856.00
2017-11-23T08:56:48.584Z,5992.00
2017-11-23T08:57:48.843Z,6120.00
2017-11-23T08:58:48.617Z,6224.00
2017-11-23T08:59:48.630Z,6296.00
2017-11-23T09:00:48.643Z,6356.00
2017-11-23T09:01:48.685Z,6412.00
2017-11-23T09:02:48.679Z,6476.00
2017-11-23T09:03:48.701Z,6520.00
2017-11-23T09:04:48.721Z,6612.00
2017-11-23T09:05:48.724Z,6704.00
2017-11-23T09:06:48.750Z,6852.00
2017-11-23T09:07:48.776Z,7036.00
2017-11-23T09:08:48.781Z,7212.00
2017-11-23T09:09:48.796Z,7328.00
2017-11-23T09:10:48.824Z,7448.00
2017-11-23T09:11:48.833Z,7488.00
2017-11-23T09:12:48.857Z,7496.00
2017-11-23T09:13:48.872Z,7476.00
2017-11-23T09:14:48.881Z,7428.00
2017-11-23T09:15:48.907Z,7332.00
2017-11-23T09:16:48.927Z,7228.00
2017-11-23T09:17:49.239Z,7108.00
2017-11-23T09:18:48.954Z,6948.00
2017-11-23T09:19:48.968Z,6848.00
2017-11-23T09:20:48.983Z,6784.00
2017-11-23T09:21:48.999Z,6796.00
2017-11-23T09:22:49.021Z,6884.00
2017-11-23T09:23:49.035Z,7012.00
2017-11-23T09:24:49.060Z,7144.00
2017-11-23T09:25:49.079Z,7276.00
2017-11-23T09:26:49.107Z,7400.00
2017-11-23T09:27:49.109Z,7476.00
2017-11-23T09:28:49.136Z,7492.00
2017-11-23T09:29:49.146Z,7472.00
2017-11-23T09:30:49.161Z,7448.00
2017-11-23T09:31:49.187Z,7428.00
2017-11-23T09:32:49.213Z,7464.00
2017-11-23T09:33:49.227Z,7540.00
2017-11-23T09:34:49.238Z,7620.00
2017-11-23T09:35:49.253Z,7708.00
2017-11-23T09:36:49.281Z,7780.00
2017-11-23T09:37:49.281Z,7836.00
2017-11-23T09:38:49.302Z,7880.00
2017-11-23T09:39:49.328Z,7920.00
2017-11-23T09:40:49.352Z,7912.00
2017-11-23T09:41:49.362Z,7852.00
2017-11-23T09:42:49.381Z,7788.00
2017-11-23T09:43:49.407Z,7696.00
2017-11-23T09:44:49.422Z,7624.00
2017-11-23T09:45:49.445Z,7612.00
2017-11-23T09:46:49.448Z,7640.00
2017-11-23T09:47:49.473Z,7676.00
2017-11-23T09:48:49.488Z,7716.00
2017-11-23T09:49:49.508Z,7728.00
2017-11-23T09:50:49.526Z,7664.00
2017-11-23T09:51:49.541Z,7556.00
2017-11-23T09:52:49.574Z,7408.00
2017-11-23T09:53:49.576Z,7212.00
2017-11-23T09:54:49.592Z,7020.00
2017-11-23T09:55:49.629Z,6852.00
2017-11-23T09:56:49.636Z,6700.00
2017-11-23T09:57:49.900Z,6568.00
2017-11-23T09:58:49.676Z,6412.00
2017-11-23T09:59:49.696Z,6216.00
2017-11-23T10:00:49.720Z,5984.00
2017-11-23T10:01:49.723Z,5744.00
2017-11-23T10:02:49.740Z,5556.00
2017-11-23T10:03:49.770Z,5452.00
2017-11-23T10:04:49.786Z,5364.00
2017-11-23T10:05:49.803Z,5320.00
2017-11-23T10:06:49.817Z,5324.00
2017-11-23T10:07:49.842Z,5368.00
2017-11-23T10:08:49.880Z,5416.00
2017-11-23T10:09:49.877Z,5492.00
2017-11-23T10:10:49.900Z,5664.00
2017-11-23T10:11:49.907Z,5976.00
2017-11-23T10:12:49.939Z,6284.00
2017-11-23T10:13:49.942Z,6596.00
2017-11-23T10:14:49.965Z,6920.00
2017-11-23T10:15:49.983Z,7240.00
2017-11-23T10:16:50.006Z,7452.00
2017-11-23T10:17:50.265Z,7700.00
2017-11-23T10:18:50.049Z,7968.00
2017-11-23T10:19:50.060Z,8176.00
2017-11-23T10:20:50.085Z,8240.00
2017-11-23T10:21:50.096Z,8276.00
2017-11-23T10:22:50.103Z,8364.00
2017-11-23T10:23:50.128Z,8484.00
2017-11-23T10:24:50.147Z,8512.00
2017-11-23T10:25:50.161Z,8548.00
2017-11-23T10:26:50.180Z,8624.00
2017-11-23T10:27:50.203Z,8684.00
2017-11-23T10:28:50.226Z,8704.00
2017-11-23T10:29:50.244Z,8656.00
2017-11-23T10:30:50.251Z,8624.00
2017-11-23T10:31:50.277Z,8740.00
2017-11-23T10:32:50.301Z,8840.00
2017-11-23T10:33:50.313Z,8980.00
2017-11-23T10:34:50.334Z,9128.00
2017-11-23T10:35:50.356Z,9196.00
2017-11-23T10:36:50.382Z,9060.00
2017-11-23T10:37:50.703Z,8872.00
2017-11-23T10:38:50.401Z,8576.00
2017-11-23T10:39:50.429Z,8316.00
2017-11-23T10:40:50.445Z,8104.00
2017-11-23T10:41:50.470Z,8032.00
2017-11-23T10:42:50.493Z,8020.00
2017-11-23T10:43:50.491Z,8048.00
2017-11-23T10:44:50.514Z,8120.00
2017-11-23T10:45:50.533Z,8208.00
2017-11-23T10:46:50.561Z,8344.00
2017-11-23T10:47:50.578Z,8528.00
2017-11-23T10:48:50.588Z,8744.00
2017-11-23T10:49:50.615Z,8996.00
2017-11-23T10:50:50.640Z,9208.00
2017-11-23T10:51:50.650Z,9324.00
2017-11-23T10:52:50.678Z,9412.00
2017-11-23T10:53:50.680Z,9476.00
2017-11-23T10:54:50.700Z,9504.00
2017-11-23T10:55:50.724Z,9512.00
2017-11-23T10:56:50.742Z,9452.00
2017-11-23T10:57:50.757Z,9340.00
2017-11-23T10:58:50.783Z,9208.00
2017-11-23T10:59:50.794Z,9112.00
2017-11-23T11:00:50.828Z,9040.00
2017-11-23T11:01:50.838Z,9016.00
2017-11-23T11:02:50.850Z,9008.00
2017-11-23T11:03:50.873Z,8928.00
2017-11-23T11:04:50.895Z,8872.00
2017-11-23T11:05:50.917Z,8896.00
2017-11-23T11:06:50.935Z,8952.00
2017-11-23T11:07:50.954Z,9096.00
2017-11-23T11:08:50.969Z,9196.00
2017-11-23T11:09:50.989Z,9208.00
2017-11-23T11:10:51.007Z,9196.00
2017-11-23T11:11:51.032Z,9124.00
2017-11-23T11:12:51.053Z,9024.00
2017-11-23T11:13:51.070Z,8944.00
2017-11-23T11:14:51.089Z,8912.00
2017-11-23T11:15:51.107Z,8928.00
2017-11-23T11:16:51.127Z,8988.00
2017-11-23T11:17:51.398Z,9076.00
2017-11-23T11:18:51.167Z,9076.00
2017-11-23T11:19:51.179Z,9040.00
2017-11-23T11:20:51.194Z,9000.00
2017-11-23T11:21:51.228Z,8956.00
2017-11-23T11:22:51.245Z,8840.00
2017-11-23T11:23:51.267Z,8728.00
2017-11-23T11:24:51.286Z,8664.00
2017-11-23T11:25:51.294Z,8612.00
2017-11-23T11:26:51.311Z,8536.00
2017-11-23T11:27:51.342Z,8560.00
2017-11-23T11:28:51.361Z,8680.00
2017-11-23T11:29:51.403Z,8756.00
2017-11-23T11:30:51.408Z,8744.00
2017-11-23T11:31:51.407Z,8660.00
2017-11-23T11:32:51.436Z,8512.00
2017-11-23T11:33:51.448Z,8376.00
2017-11-23T11:34:51.467Z,8336.00
2017-11-23T11:35:51.494Z,8380.00
2017-11-23T11:36:51.513Z,8412.00
2017-11-23T11:37:51.528Z,8448.00
2017-11-23T11:38:51.547Z,8484.00
2017-11-23T11:39:51.572Z,8508.00
2017-11-23T11:40:51.587Z,8544.00
2017-11-23T11:41:51.604Z,8564.00
2017-11-23T11:42:51.645Z,8532.00
2017-11-23T11:43:51.653Z,8528.00
2017-11-23T11:44:51.676Z,8588.00
2017-11-23T11:45:51.683Z,8664.00
2017-11-23T11:46:51.712Z,8684.00
2017-11-23T11:47:51.734Z,8696.00
2017-11-23T11:48:51.749Z,8688.00
2017-11-23T11:49:51.765Z,8624.00
2017-11-23T11:50:51.788Z,8520.00
2017-11-23T11:51:51.808Z,8444.00
2017-11-23T11:52:51.824Z,8412.00
2017-11-23T11:53:51.848Z,8320.00
2017-11-23T11:54:51.862Z,8172.00
2017-11-23T11:55:51.883Z,8028.00
2017-11-23T11:56:51.907Z,7924.00
2017-11-23T11:57:52.174Z,7876.00
2017-11-23T11:58:51.945Z,7896.00
2017-11-23T11:59:51.958Z,7940.00
2017-11-23T12:00:51.988Z,7992.00
2017-11-23T12:01:52.002Z,8000.00
2017-11-23T12:02:52.030Z,7928.00
2017-11-23T12:03:52.045Z,7844.00
2017-11-23T12:04:52.072Z,7776.00
2017-11-23T12:05:52.087Z,7724.00
2017-11-23T12:06:52.090Z,7640.00
2017-11-23T12:07:52.121Z,7524.00
2017-11-23T12:08:52.135Z,7320.00
2017-11-23T12:09:52.160Z,7088.00
2017-11-23T12:10:52.186Z,6836.00
2017-11-23T12:11:52.199Z,6544.00
2017-11-23T12:12:52.222Z,6248.00
2017-11-23T12:13:52.238Z,6008.00
2017-11-23T12:14:52.257Z,5748.00
2017-11-23T12:15:52.279Z,5464.00
2017-11-23T12:16:52.295Z,5284.00
2017-11-23T12:17:52.320Z,5040.00
2017-11-23T12:18:52.341Z,4764.00
2017-11-23T12:19:52.364Z,4480.00
2017-11-23T12:20:52.386Z,4360.00
2017-11-23T12:21:52.402Z,4412.00
2017-11-23T12:22:52.420Z,4592.00
2017-11-23T12:23:52.435Z,4912.00
2017-11-23T12:24:52.454Z,5276.00
2017-11-23T12:25:52.472Z,5684.00
2017-11-23T12:26:52.498Z,5888.00
2017-11-23T12:27:52.518Z,5796.00
2017-11-23T12:28:52.544Z,5348.00
2017-11-23T12:29:52.551Z,4632.00
2017-11-23T12:30:52.579Z,3912.00
2017-11-23T12:31:52.590Z,3352.00
2017-11-23T12:32:52.620Z,2964.00
2017-11-23T12:33:52.633Z,2744.00
2017-11-23T12:34:52.660Z,2676.00
2017-11-23T12:35:52.678Z,2660.00
2017-11-23T12:36:52.700Z,2716.00
2017-11-23T12:37:52.707Z,2892.00
2017-11-23T12:38:52.734Z,3100.00
2017-11-23T12:39:52.746Z,3176.00
2017-11-23T12:40:52.773Z,3172.00
2017-11-23T12:41:52.795Z,3140.00